sensor_id;sensor_type;location;lat;lon;timestamp;pressure;altitude;pressure_sealevel;temperature;humidity
59825;BME280;45703;50.898;6.054;2023-04-04T00:00:10;101410.22;;;1.96;74.88
59825;BME280;45703;50.898;6.054;2023-04-04T00:02:36;101414.94;;;1.92;75.11
59825;BME280;45703;50.898;6.054;2023-04-04T00:05:05;101406.50;;;1.89;74.97
59825;BME280;45703;50.898;6.054;2023-04-04T00:07:31;101415.09;;;1.91;75.65
59825;BME280;45703;50.898;6.054;2023-04-04T00:09:57;101406.78;;;1.86;75.38
59825;BME280;45703;50.898;6.054;2023-04-04T00:12:23;101409.81;;;1.81;75.79
59825;BME280;45703;50.898;6.054;2023-04-04T00:14:49;101413.13;;;1.83;75.76
59825;BME280;45703;50.898;6.054;2023-04-04T00:17:15;101415.63;;;1.85;76.24
59825;BME280;45703;50.898;6.054;2023-04-04T00:19:40;101402.44;;;1.75;76.41
59825;BME280;45703;50.898;6.054;2023-04-04T00:22:06;101411.16;;;1.76;76.38
59825;BME280;45703;50.898;6.054;2023-04-04T00:24:31;101404.38;;;1.73;76.33
59825;BME280;45703;50.898;6.054;2023-04-04T00:26:57;101408.38;;;1.68;76.12
59825;BME280;45703;50.898;6.054;2023-04-04T00:29:23;101404.94;;;1.67;76.27
59825;BME280;45703;50.898;6.054;2023-04-04T00:31:48;101411.00;;;1.68;75.88
59825;BME280;45703;50.898;6.054;2023-04-04T00:34:14;101412.00;;;1.67;76.04
59825;BME280;45703;50.898;6.054;2023-04-04T00:36:39;101408.66;;;1.65;76.23
59825;BME280;45703;50.898;6.054;2023-04-04T00:39:04;101404.38;;;1.64;76.07
59825;BME280;45703;50.898;6.054;2023-04-04T00:41:30;101399.66;;;1.58;76.32
59825;BME280;45703;50.898;6.054;2023-04-04T00:43:55;101401.59;;;1.56;76.29
59825;BME280;45703;50.898;6.054;2023-04-04T00:46:21;101396.59;;;1.53;76.34
59825;BME280;45703;50.898;6.054;2023-04-04T00:48:49;101400.88;;;1.54;76.30
59825;BME280;45703;50.898;6.054;2023-04-04T00:51:15;101401.16;;;1.51;76.35
59825;BME280;45703;50.898;6.054;2023-04-04T00:53:43;101415.00;;;1.53;76.41
59825;BME280;45703;50.898;6.054;2023-04-04T00:56:10;101408.34;;;1.49;76.70
59825;BME280;45703;50.898;6.054;2023-04-04T00:58:36;101411.69;;;1.51;76.52
59825;BME280;45703;50.898;6.054;2023-04-04T01:01:02;101403.50;;;1.44;76.48
59825;BME280;45703;50.898;6.054;2023-04-04T01:03:27;101408.47;;;1.47;76.54
59825;BME280;45703;50.898;6.054;2023-04-04T01:05:54;101409.59;;;1.45;76.51
59825;BME280;45703;50.898;6.054;2023-04-04T01:08:22;101414.16;;;1.43;76.39
59825;BME280;45703;50.898;6.054;2023-04-04T01:10:48;101411.66;;;1.41;76.43
59825;BME280;45703;50.898;6.054;2023-04-04T01:13:14;101411.38;;;1.35;76.48
59825;BME280;45703;50.898;6.054;2023-04-04T01:15:40;101411.38;;;1.35;76.53
59825;BME280;45703;50.898;6.054;2023-04-04T01:18:08;101416.91;;;1.32;76.89
59825;BME280;45703;50.898;6.054;2023-04-04T01:20:41;101419.81;;;1.29;76.77
59825;BME280;45703;50.898;6.054;2023-04-04T01:23:08;101416.59;;;1.26;77.09
59825;BME280;45703;50.898;6.054;2023-04-04T01:25:34;101421.16;;;1.24;77.58
59825;BME280;45703;50.898;6.054;2023-04-04T01:28:01;101424.88;;;1.21;77.65
59825;BME280;45703;50.898;6.054;2023-04-04T01:30:28;101430.41;;;1.18;77.73
59825;BME280;45703;50.898;6.054;2023-04-04T01:33:01;101419.31;;;1.15;77.43
59825;BME280;45703;50.898;6.054;2023-04-04T01:35:37;101419.44;;;1.13;77.70
59825;BME280;45703;50.898;6.054;2023-04-04T01:38:22;101419.00;;;1.08;77.83
59825;BME280;45703;50.898;6.054;2023-04-04T01:40:51;101421.66;;;1.08;77.92
59825;BME280;45703;50.898;6.054;2023-04-04T01:43:19;101421.66;;;1.08;78.08
59825;BME280;45703;50.898;6.054;2023-04-04T01:45:45;101419.97;;;1.07;78.03
59825;BME280;45703;50.898;6.054;2023-04-04T01:48:11;101422.28;;;1.01;78.02
59825;BME280;45703;50.898;6.054;2023-04-04T01:50:36;101418.56;;;1.03;78.12
59825;BME280;45703;50.898;6.054;2023-04-04T01:53:02;101417.88;;;1.01;78.09
59825;BME280;45703;50.898;6.054;2023-04-04T01:55:27;101413.59;;;1.00;77.95
59825;BME280;45703;50.898;6.054;2023-04-04T01:57:54;101407.91;;;0.95;77.88
59825;BME280;45703;50.898;6.054;2023-04-04T02:00:19;101408.97;;;0.93;78.10
59825;BME280;45703;50.898;6.054;2023-04-04T02:02:45;101406.75;;;0.88;78.49
59825;BME280;45703;50.898;6.054;2023-04-04T02:05:10;101404.84;;;0.90;78.86
59825;BME280;45703;50.898;6.054;2023-04-04T02:07:36;101395.09;;;0.81;79.01
59825;BME280;45703;50.898;6.054;2023-04-04T02:10:02;101402.84;;;0.83;79.17
59825;BME280;45703;50.898;6.054;2023-04-04T02:12:28;101407.56;;;0.79;79.32
59825;BME280;45703;50.898;6.054;2023-04-04T02:14:53;101395.03;;;0.72;79.44
59825;BME280;45703;50.898;6.054;2023-04-04T02:17:18;101391.84;;;0.68;79.21
59825;BME280;45703;50.898;6.054;2023-04-04T02:19:44;101387.69;;;0.66;79.38
59825;BME280;45703;50.898;6.054;2023-04-04T02:22:10;101403.03;;;0.70;79.23
59825;BME280;45703;50.898;6.054;2023-04-04T02:24:35;101391.03;;;0.68;79.45
59825;BME280;45703;50.898;6.054;2023-04-04T02:27:01;101398.06;;;0.67;79.72
59825;BME280;45703;50.898;6.054;2023-04-04T02:29:26;101386.66;;;0.57;79.86
59825;BME280;45703;50.898;6.054;2023-04-04T02:31:52;101404.94;;;0.59;79.92
59825;BME280;45703;50.898;6.054;2023-04-04T02:34:17;101395.91;;;0.52;80.09
59825;BME280;45703;50.898;6.054;2023-04-04T02:36:43;101394.63;;;0.46;80.37
59825;BME280;45703;50.898;6.054;2023-04-04T02:39:08;101398.91;;;0.47;80.73
59825;BME280;45703;50.898;6.054;2023-04-04T02:41:34;101402.50;;;0.46;80.70
59825;BME280;45703;50.898;6.054;2023-04-04T02:43:59;101376.31;;;0.35;80.67
59825;BME280;45703;50.898;6.054;2023-04-04T02:46:25;101381.88;;;0.42;80.62
59825;BME280;45703;50.898;6.054;2023-04-04T02:48:50;101370.22;;;0.35;80.82
59825;BME280;45703;50.898;6.054;2023-04-04T02:51:16;101383.22;;;0.36;80.96
59825;BME280;45703;50.898;6.054;2023-04-04T02:53:41;101378.09;;;0.35;81.38
59825;BME280;45703;50.898;6.054;2023-04-04T02:56:07;101379.06;;;0.34;81.21
59825;BME280;45703;50.898;6.054;2023-04-04T02:58:33;101382.09;;;0.29;81.27
59825;BME280;45703;50.898;6.054;2023-04-04T03:00:58;101364.19;;;0.23;81.70
59825;BME280;45703;50.898;6.054;2023-04-04T03:03:24;101369.59;;;0.22;81.81
59825;BME280;45703;50.898;6.054;2023-04-04T03:05:50;101378.97;;;0.24;81.87
59825;BME280;45703;50.898;6.054;2023-04-04T03:08:15;101385.34;;;0.22;81.84
59825;BME280;45703;50.898;6.054;2023-04-04T03:10:41;101382.00;;;0.20;81.93
59825;BME280;45703;50.898;6.054;2023-04-04T03:13:06;101379.50;;;0.18;81.69
59825;BME280;45703;50.898;6.054;2023-04-04T03:15:32;101378.09;;;0.14;81.83
59825;BME280;45703;50.898;6.054;2023-04-04T03:17:59;101370.72;;;0.08;81.97
59825;BME280;45703;50.898;6.054;2023-04-04T03:20:24;101377.53;;;0.11;82.22
59825;BME280;45703;50.898;6.054;2023-04-04T03:22:50;101385.78;;;0.06;82.44
59825;BME280;45703;50.898;6.054;2023-04-04T03:25:16;101383.84;;;0.08;82.59
59825;BME280;45703;50.898;6.054;2023-04-04T03:27:41;101369.72;;;0.00;82.64
59825;BME280;45703;50.898;6.054;2023-04-04T03:30:07;101374.72;;;0.03;82.34
59825;BME280;45703;50.898;6.054;2023-04-04T03:32:35;101372.19;;;0.01;82.25
59825;BME280;45703;50.898;6.054;2023-04-04T03:35:00;101385.78;;;0.06;82.17
59825;BME280;45703;50.898;6.054;2023-04-04T03:37:26;101385.91;;;0.05;82.23
59825;BME280;45703;50.898;6.054;2023-04-04T03:39:53;101381.88;;;0.01;82.19
59825;BME280;45703;50.898;6.054;2023-04-04T03:42:18;101388.66;;;0.03;81.92
59825;BME280;45703;50.898;6.054;2023-04-04T03:44:44;101384.34;;;0.02;81.83
59825;BME280;45703;50.898;6.054;2023-04-04T03:47:09;101396.53;;;0.03;81.67
59825;BME280;45703;50.898;6.054;2023-04-04T03:49:34;101394.16;;;0.00;81.58
59825;BME280;45703;50.898;6.054;2023-04-04T03:52:00;101397.84;;;-0.02;81.65
59825;BME280;45703;50.898;6.054;2023-04-04T03:54:27;101400.88;;;-0.06;81.98
59825;BME280;45703;50.898;6.054;2023-04-04T03:56:53;101394.19;;;-0.10;81.93
59825;BME280;45703;50.898;6.054;2023-04-04T03:59:19;101386.13;;;-0.18;81.90
59825;BME280;45703;50.898;6.054;2023-04-04T04:01:45;101386.84;;;-0.16;81.86
59825;BME280;45703;50.898;6.054;2023-04-04T04:04:10;101382.78;;;-0.20;82.19
59825;BME280;45703;50.898;6.054;2023-04-04T04:06:36;101392.91;;;-0.16;82.01
59825;BME280;45703;50.898;6.054;2023-04-04T04:09:02;101393.28;;;-0.20;82.20
59825;BME280;45703;50.898;6.054;2023-04-04T04:11:27;101380.78;;;-0.28;82.29
59825;BME280;45703;50.898;6.054;2023-04-04T04:13:53;101394.25;;;-0.21;82.53
59825;BME280;45703;50.898;6.054;2023-04-04T04:16:19;101397.13;;;-0.24;82.63
59825;BME280;45703;50.898;6.054;2023-04-04T04:18:46;101370.91;;;-0.35;82.75
59825;BME280;45703;50.898;6.054;2023-04-04T04:21:11;101382.44;;;-0.27;82.69
59825;BME280;45703;50.898;6.054;2023-04-04T04:23:37;101390.31;;;-0.27;82.97
59825;BME280;45703;50.898;6.054;2023-04-04T04:26:02;101378.53;;;-0.32;83.25
59825;BME280;45703;50.898;6.054;2023-04-04T04:28:28;101387.09;;;-0.30;83.60
59825;BME280;45703;50.898;6.054;2023-04-04T04:30:53;101381.03;;;-0.31;83.72
59825;BME280;45703;50.898;6.054;2023-04-04T04:33:18;101380.44;;;-0.34;83.50
59825;BME280;45703;50.898;6.054;2023-04-04T04:35:44;101384.88;;;-0.35;83.34
59825;BME280;45703;50.898;6.054;2023-04-04T04:38:09;101374.28;;;-0.44;83.51
59825;BME280;45703;50.898;6.054;2023-04-04T04:40:35;101364.75;;;-0.45;83.41
59825;BME280;45703;50.898;6.054;2023-04-04T04:43:01;101363.06;;;-0.46;83.62
59825;BME280;45703;50.898;6.054;2023-04-04T04:45:26;101366.53;;;-0.46;83.56
59825;BME280;45703;50.898;6.054;2023-04-04T04:47:51;101381.91;;;-0.41;83.38
59825;BME280;45703;50.898;6.054;2023-04-04T04:50:17;101382.84;;;-0.42;83.45
59825;BME280;45703;50.898;6.054;2023-04-04T04:52:43;101374.28;;;-0.44;83.03
59825;BME280;45703;50.898;6.054;2023-04-04T04:55:09;101375.22;;;-0.45;83.58
59825;BME280;45703;50.898;6.054;2023-04-04T04:57:35;101373.72;;;-0.48;83.39
59825;BME280;45703;50.898;6.054;2023-04-04T05:00:01;101381.56;;;-0.48;83.54
59825;BME280;45703;50.898;6.054;2023-04-04T05:02:28;101382.19;;;-0.55;82.85
59825;BME280;45703;50.898;6.054;2023-04-04T05:04:54;101389.81;;;-0.52;82.78
59825;BME280;45703;50.898;6.054;2023-04-04T05:07:19;101389.56;;;-0.49;82.37
59825;BME280;45703;50.898;6.054;2023-04-04T05:09:45;101387.88;;;-0.50;82.50
59825;BME280;45703;50.898;6.054;2023-04-04T05:12:10;101395.75;;;-0.50;83.14
59825;BME280;45703;50.898;6.054;2023-04-04T05:14:35;101389.09;;;-0.54;83.23
59825;BME280;45703;50.898;6.054;2023-04-04T05:17:01;101394.59;;;-0.57;83.52
59825;BME280;45703;50.898;6.054;2023-04-04T05:19:27;101388.94;;;-0.53;83.70
59825;BME280;45703;50.898;6.054;2023-04-04T05:21:52;101394.09;;;-0.51;83.90
59825;BME280;45703;50.898;6.054;2023-04-04T05:24:18;101397.41;;;-0.49;83.66
59825;BME280;45703;50.898;6.054;2023-04-04T05:26:44;101398.97;;;-0.47;83.86
59825;BME280;45703;50.898;6.054;2023-04-04T05:29:11;101408.38;;;-0.44;83.60
59825;BME280;45703;50.898;6.054;2023-04-04T05:31:36;101403.25;;;-0.46;83.61
59825;BME280;45703;50.898;6.054;2023-04-04T05:34:02;101400.50;;;-0.44;83.61
59825;BME280;45703;50.898;6.054;2023-04-04T05:36:33;101404.78;;;-0.43;83.90
59825;BME280;45703;50.898;6.054;2023-04-04T05:38:59;101399.28;;;-0.40;83.98
59825;BME280;45703;50.898;6.054;2023-04-04T05:41:24;101401.66;;;-0.37;84.10
59825;BME280;45703;50.898;6.054;2023-04-04T05:43:50;101401.41;;;-0.34;83.89
59825;BME280;45703;50.898;6.054;2023-04-04T05:46:15;101393.56;;;-0.34;84.04
59825;BME280;45703;50.898;6.054;2023-04-04T05:48:41;101406.16;;;-0.28;84.14
59825;BME280;45703;50.898;6.054;2023-04-04T05:51:06;101408.56;;;-0.25;84.18
59825;BME280;45703;50.898;6.054;2023-04-04T05:53:31;101410.94;;;-0.22;84.34
59825;BME280;45703;50.898;6.054;2023-04-04T05:55:57;101413.31;;;-0.19;84.09
59825;BME280;45703;50.898;6.054;2023-04-04T05:58:22;101422.63;;;-0.15;84.03
59825;BME280;45703;50.898;6.054;2023-04-04T06:00:48;101417.38;;;-0.15;83.50
59825;BME280;45703;50.898;6.054;2023-04-04T06:03:13;101423.78;;;-0.08;83.31
59825;BME280;45703;50.898;6.054;2023-04-04T06:05:41;101418.28;;;-0.05;83.48
59825;BME280;45703;50.898;6.054;2023-04-04T06:08:07;101414.69;;;-0.04;83.48
59825;BME280;45703;50.898;6.054;2023-04-04T06:10:32;101422.78;;;0.03;83.19
59825;BME280;45703;50.898;6.054;2023-04-04T06:12:58;101418.94;;;0.07;83.24
59825;BME280;45703;50.898;6.054;2023-04-04T06:15:23;101420.94;;;0.15;83.18
59825;BME280;45703;50.898;6.054;2023-04-04T06:17:48;101427.34;;;0.22;83.11
59825;BME280;45703;50.898;6.054;2023-04-04T06:20:14;101426.03;;;0.27;83.04
59825;BME280;45703;50.898;6.054;2023-04-04T06:22:40;101422.19;;;0.31;82.91
59825;BME280;45703;50.898;6.054;2023-04-04T06:25:06;101414.84;;;0.35;82.71
59825;BME280;45703;50.898;6.054;2023-04-04T06:27:34;101429.47;;;0.48;82.33
59825;BME280;45703;50.898;6.054;2023-04-04T06:29:59;101423.25;;;0.49;82.26
59825;BME280;45703;50.898;6.054;2023-04-04T06:32:25;101432.47;;;0.64;82.07
59825;BME280;45703;50.898;6.054;2023-04-04T06:34:52;101435.53;;;0.69;81.69
59825;BME280;45703;50.898;6.054;2023-04-04T06:37:17;101434.31;;;0.73;81.50
59825;BME280;45703;50.898;6.054;2023-04-04T06:39:45;101430.25;;;0.80;81.48
59825;BME280;45703;50.898;6.054;2023-04-04T06:42:11;101425.28;;;0.87;81.27
59825;BME280;45703;50.898;6.054;2023-04-04T06:44:37;101439.19;;;0.98;81.18
59825;BME280;45703;50.898;6.054;2023-04-04T06:47:02;101443.66;;;1.07;80.74
59825;BME280;45703;50.898;6.054;2023-04-04T06:49:27;101453.25;;;1.18;80.19
59825;BME280;45703;50.898;6.054;2023-04-04T06:51:53;101439.69;;;1.22;80.28
59825;BME280;45703;50.898;6.054;2023-04-04T06:54:18;101445.16;;;1.30;79.80
59825;BME280;45703;50.898;6.054;2023-04-04T06:56:44;101460.66;;;1.42;79.46
59825;BME280;45703;50.898;6.054;2023-04-04T06:59:09;101451.44;;;1.48;79.41
59825;BME280;45703;50.898;6.054;2023-04-04T07:01:36;101457.13;;;1.53;79.31
59825;BME280;45703;50.898;6.054;2023-04-04T07:04:02;101466.56;;;1.65;78.72
59825;BME280;45703;50.898;6.054;2023-04-04T07:06:27;101460.75;;;1.71;78.57
59825;BME280;45703;50.898;6.054;2023-04-04T07:08:54;101464.38;;;1.79;78.33
59825;BME280;45703;50.898;6.054;2023-04-04T07:11:20;101465.50;;;1.86;78.20
59825;BME280;45703;50.898;6.054;2023-04-04T07:13:47;101473.16;;;1.99;78.34
59825;BME280;45703;50.898;6.054;2023-04-04T07:16:13;101466.94;;;2.09;78.07
59825;BME280;45703;50.898;6.054;2023-04-04T07:18:38;101464.28;;;2.19;77.65
59825;BME280;45703;50.898;6.054;2023-04-04T07:21:04;101479.25;;;2.28;77.39
59825;BME280;45703;50.898;6.054;2023-04-04T07:23:29;101472.50;;;2.35;77.23
59825;BME280;45703;50.898;6.054;2023-04-04T07:25:55;101469.16;;;2.42;76.94
59825;BME280;45703;50.898;6.054;2023-04-04T07:28:21;101466.34;;;2.53;76.82
59825;BME280;45703;50.898;6.054;2023-04-04T07:30:46;101455.81;;;2.63;76.33
59825;BME280;45703;50.898;6.054;2023-04-04T07:33:12;101442.22;;;2.67;75.61
59825;BME280;45703;50.898;6.054;2023-04-04T07:35:37;101450.78;;;2.78;75.62
59825;BME280;45703;50.898;6.054;2023-04-04T07:38:04;101441.66;;;2.83;74.78
59825;BME280;45703;50.898;6.054;2023-04-04T07:40:29;101449.66;;;2.90;75.32
59825;BME280;45703;50.898;6.054;2023-04-04T07:42:56;101436.03;;;2.95;75.09
59825;BME280;45703;50.898;6.054;2023-04-04T07:45:21;101434.94;;;2.97;74.98
59825;BME280;45703;50.898;6.054;2023-04-04T07:47:47;101442.38;;;3.11;74.85
59825;BME280;45703;50.898;6.054;2023-04-04T07:50:13;101436.50;;;3.17;74.12
59825;BME280;45703;50.898;6.054;2023-04-04T07:52:39;101441.75;;;3.27;73.71
59825;BME280;45703;50.898;6.054;2023-04-04T07:55:05;101444.22;;;3.38;74.35
59825;BME280;45703;50.898;6.054;2023-04-04T07:57:32;101430.97;;;3.47;72.07
59825;BME280;45703;50.898;6.054;2023-04-04T07:59:58;101428.25;;;3.57;72.28
59825;BME280;45703;50.898;6.054;2023-04-04T08:02:24;101422.94;;;3.66;73.33
59825;BME280;45703;50.898;6.054;2023-04-04T08:04:49;101430.81;;;3.76;72.93
59825;BME280;45703;50.898;6.054;2023-04-04T08:07:15;101438.69;;;3.85;72.11
59825;BME280;45703;50.898;6.054;2023-04-04T08:09:40;101420.03;;;3.87;72.30
59825;BME280;45703;50.898;6.054;2023-04-04T08:12:06;101433.00;;;3.98;72.45
59825;BME280;45703;50.898;6.054;2023-04-04T08:14:32;101434.06;;;4.05;71.87
59825;BME280;45703;50.898;6.054;2023-04-04T08:16:57;101446.22;;;4.15;70.80
59825;BME280;45703;50.898;6.054;2023-04-04T08:19:23;101435.66;;;4.15;71.16
59825;BME280;45703;50.898;6.054;2023-04-04T08:21:48;101445.88;;;4.27;70.87
59825;BME280;45703;50.898;6.054;2023-04-04T08:24:14;101442.31;;;4.36;71.54
59825;BME280;45703;50.898;6.054;2023-04-04T08:26:39;101439.91;;;4.43;71.01
59825;BME280;45703;50.898;6.054;2023-04-04T08:29:06;101438.97;;;4.52;70.91
59825;BME280;45703;50.898;6.054;2023-04-04T08:31:31;101444.44;;;4.58;70.82
59825;BME280;45703;50.898;6.054;2023-04-04T08:33:57;101434.72;;;4.59;71.16
59825;BME280;45703;50.898;6.054;2023-04-04T08:36:22;101444.91;;;4.71;71.05
59825;BME280;45703;50.898;6.054;2023-04-04T08:38:48;101446.09;;;4.77;70.77
59825;BME280;45703;50.898;6.054;2023-04-04T08:41:13;101443.13;;;4.80;70.11
59825;BME280;45703;50.898;6.054;2023-04-04T08:43:43;101428.78;;;4.82;67.89
59825;BME280;45703;50.898;6.054;2023-04-04T08:46:11;101425.81;;;4.85;68.28
59825;BME280;45703;50.898;6.054;2023-04-04T08:48:40;101421.72;;;4.91;68.77
59825;BME280;45703;50.898;6.054;2023-04-04T08:51:07;101429.84;;;4.97;70.67
59825;BME280;45703;50.898;6.054;2023-04-04T08:53:35;101425.75;;;5.03;70.03
59825;BME280;45703;50.898;6.054;2023-04-04T08:56:01;101428.44;;;5.11;69.95
59825;BME280;45703;50.898;6.054;2023-04-04T08:58:27;101428.00;;;5.15;69.88
59825;BME280;45703;50.898;6.054;2023-04-04T09:00:53;101434.31;;;5.22;69.17
59825;BME280;45703;50.898;6.054;2023-04-04T09:03:26;101435.34;;;5.29;68.29
59825;BME280;45703;50.898;6.054;2023-04-04T09:05:55;101433.84;;;5.35;67.16
59825;BME280;45703;50.898;6.054;2023-04-04T09:08:21;101433.75;;;5.44;68.63
59825;BME280;45703;50.898;6.054;2023-04-04T09:10:49;101425.31;;;5.49;69.56
59825;BME280;45703;50.898;6.054;2023-04-04T09:13:16;101435.94;;;5.57;68.72
59825;BME280;45703;50.898;6.054;2023-04-04T09:15:45;101425.38;;;5.64;68.73
59825;BME280;45703;50.898;6.054;2023-04-04T09:18:11;101437.50;;;5.75;69.01
59825;BME280;45703;50.898;6.054;2023-04-04T09:20:41;101428.28;;;5.79;68.60
59825;BME280;45703;50.898;6.054;2023-04-04T09:23:09;101429.94;;;5.88;68.84
59825;BME280;45703;50.898;6.054;2023-04-04T09:25:36;101432.78;;;5.94;68.48
59825;BME280;45703;50.898;6.054;2023-04-04T09:28:03;101430.47;;;5.99;68.96
59825;BME280;45703;50.898;6.054;2023-04-04T09:30:33;101422.88;;;6.04;66.16
59825;BME280;45703;50.898;6.054;2023-04-04T09:33:08;101434.47;;;6.11;68.21
59825;BME280;45703;50.898;6.054;2023-04-04T09:35:35;101434.47;;;6.19;66.70
59825;BME280;45703;50.898;6.054;2023-04-04T09:38:02;101426.84;;;6.16;63.50
59825;BME280;45703;50.898;6.054;2023-04-04T09:40:31;101421.22;;;6.11;59.23
59825;BME280;45703;50.898;6.054;2023-04-04T09:43:01;101425.84;;;6.17;65.75
59825;BME280;45703;50.898;6.054;2023-04-04T09:45:29;101413.78;;;6.15;66.17
59825;BME280;45703;50.898;6.054;2023-04-04T09:47:55;101418.09;;;6.24;66.75
59825;BME280;45703;50.898;6.054;2023-04-04T09:50:22;101411.28;;;6.21;63.75
59825;BME280;45703;50.898;6.054;2023-04-04T09:52:51;101426.53;;;6.27;65.05
59825;BME280;45703;50.898;6.054;2023-04-04T09:55:17;101421.56;;;6.32;66.33
59825;BME280;45703;50.898;6.054;2023-04-04T09:57:43;101422.56;;;6.39;65.80
59825;BME280;45703;50.898;6.054;2023-04-04T10:00:11;101414.63;;;6.39;65.87
59825;BME280;45703;50.898;6.054;2023-04-04T10:02:38;101412.97;;;6.46;66.68
59825;BME280;45703;50.898;6.054;2023-04-04T10:05:09;101417.25;;;6.55;67.02
59825;BME280;45703;50.898;6.054;2023-04-04T10:07:38;101416.06;;;6.58;61.95
59825;BME280;45703;50.898;6.054;2023-04-04T10:10:05;101414.09;;;6.60;63.42
59825;BME280;45703;50.898;6.054;2023-04-04T10:12:31;101416.25;;;6.64;62.90
59825;BME280;45703;50.898;6.054;2023-04-04T10:15:01;101410.94;;;6.64;64.48
59825;BME280;45703;50.898;6.054;2023-04-04T10:17:31;101417.56;;;6.68;63.46
59825;BME280;45703;50.898;6.054;2023-04-04T10:20:03;101405.63;;;6.72;61.33
59825;BME280;45703;50.898;6.054;2023-04-04T10:22:31;101392.69;;;6.69;62.18
59825;BME280;45703;50.898;6.054;2023-04-04T10:24:57;101403.94;;;6.79;62.98
59825;BME280;45703;50.898;6.054;2023-04-04T10:27:24;101406.59;;;6.87;63.57
59825;BME280;45703;50.898;6.054;2023-04-04T10:29:50;101401.63;;;6.92;62.05
59825;BME280;45703;50.898;6.054;2023-04-04T10:32:25;101400.28;;;6.96;62.93
59825;BME280;45703;50.898;6.054;2023-04-04T10:35:02;101402.75;;;6.98;62.96
59825;BME280;45703;50.898;6.054;2023-04-04T10:37:37;101396.28;;;7.00;62.14
59825;BME280;45703;50.898;6.054;2023-04-04T10:40:08;101400.41;;;7.03;61.04
59825;BME280;45703;50.898;6.054;2023-04-04T10:42:44;101393.59;;;7.08;64.16
59825;BME280;45703;50.898;6.054;2023-04-04T10:45:12;101397.56;;;7.12;64.08
59825;BME280;45703;50.898;6.054;2023-04-04T10:47:39;101391.25;;;7.13;60.78
59825;BME280;45703;50.898;6.054;2023-04-04T10:50:06;101392.41;;;7.18;62.33
59825;BME280;45703;50.898;6.054;2023-04-04T10:52:35;101385.25;;;7.19;61.45
59825;BME280;45703;50.898;6.054;2023-04-04T10:55:07;101387.56;;;7.22;62.11
59825;BME280;45703;50.898;6.054;2023-04-04T10:57:42;101378.09;;;7.27;63.57
59825;BME280;45703;50.898;6.054;2023-04-04T11:00:09;101380.88;;;7.34;60.88
59825;BME280;45703;50.898;6.054;2023-04-04T11:05:36;101366.28;;;7.30;62.81
59825;BME280;45703;50.898;6.054;2023-04-04T11:08:09;101365.59;;;7.36;62.06
59825;BME280;45703;50.898;6.054;2023-04-04T11:10:43;101368.44;;;7.34;61.22
59825;BME280;45703;50.898;6.054;2023-04-04T11:21:14;101359.88;;;7.55;62.22
59825;BME280;45703;50.898;6.054;2023-04-04T11:26:40;101346.59;;;7.55;59.12
59825;BME280;45703;50.898;6.054;2023-04-04T11:29:04;101345.22;;;7.59;61.34
59825;BME280;45703;50.898;6.054;2023-04-04T11:31:42;101353.84;;;7.61;61.31
59825;BME280;45703;50.898;6.054;2023-04-04T11:34:09;101339.06;;;7.66;59.49
59825;BME280;45703;50.898;6.054;2023-04-04T11:44:17;101338.72;;;7.92;55.57
59825;BME280;45703;50.898;6.054;2023-04-04T11:46:43;101338.34;;;7.95;56.82
59825;BME280;45703;50.898;6.054;2023-04-04T11:49:10;101332.72;;;7.90;54.75
59825;BME280;45703;50.898;6.054;2023-04-04T11:51:37;101334.13;;;8.00;59.78
59825;BME280;45703;50.898;6.054;2023-04-04T11:54:03;101328.66;;;8.02;58.98
59825;BME280;45703;50.898;6.054;2023-04-04T11:56:35;101335.72;;;8.09;59.29
59825;BME280;45703;50.898;6.054;2023-04-04T11:59:02;101330.88;;;8.13;59.49
59825;BME280;45703;50.898;6.054;2023-04-04T12:01:30;101333.19;;;8.16;53.65
59825;BME280;45703;50.898;6.054;2023-04-04T12:03:58;101321.03;;;8.21;57.29
59825;BME280;45703;50.898;6.054;2023-04-04T12:06:24;101305.53;;;8.25;55.15
59825;BME280;45703;50.898;6.054;2023-04-04T12:08:51;101311.78;;;8.32;58.36
59825;BME280;45703;50.898;6.054;2023-04-04T12:11:16;101312.25;;;8.35;54.74
59825;BME280;45703;50.898;6.054;2023-04-04T12:13:43;101309.69;;;8.42;57.44
59825;BME280;45703;50.898;6.054;2023-04-04T12:16:09;101307.78;;;8.50;58.61
59825;BME280;45703;50.898;6.054;2023-04-04T12:18:35;101304.03;;;8.59;58.11
59825;BME280;45703;50.898;6.054;2023-04-04T12:21:02;101312.75;;;8.67;59.52
59825;BME280;45703;50.898;6.054;2023-04-04T12:23:33;101301.00;;;8.76;58.85
59825;BME280;45703;50.898;6.054;2023-04-04T12:25:58;101303.56;;;8.84;58.24
59825;BME280;45703;50.898;6.054;2023-04-04T12:28:26;101302.50;;;8.93;60.05
59825;BME280;45703;50.898;6.054;2023-04-04T12:30:51;101290.63;;;8.96;58.55
59825;BME280;45703;50.898;6.054;2023-04-04T12:33:17;101292.47;;;8.95;57.04
59825;BME280;45703;50.898;6.054;2023-04-04T12:35:50;101298.81;;;8.94;56.96
59825;BME280;45703;50.898;6.054;2023-04-04T12:38:16;101298.63;;;8.96;55.81
59825;BME280;45703;50.898;6.054;2023-04-04T12:40:43;101290.25;;;8.84;54.28
59825;BME280;45703;50.898;6.054;2023-04-04T12:43:15;101285.13;;;8.83;55.15
59825;BME280;45703;50.898;6.054;2023-04-04T12:45:42;101285.41;;;8.88;56.31
59825;BME280;45703;50.898;6.054;2023-04-04T12:48:10;101288.06;;;8.88;53.72
59825;BME280;45703;50.898;6.054;2023-04-04T12:50:48;101283.53;;;8.88;55.72
59825;BME280;45703;50.898;6.054;2023-04-04T12:53:15;101288.34;;;8.93;55.36
59825;BME280;45703;50.898;6.054;2023-04-04T12:55:45;101283.28;;;8.98;57.25
59825;BME280;45703;50.898;6.054;2023-04-04T12:58:14;101280.13;;;9.09;55.57
59825;BME280;45703;50.898;6.054;2023-04-04T13:00:40;101282.13;;;9.21;56.87
59825;BME280;45703;50.898;6.054;2023-04-04T13:03:06;101278.56;;;9.29;54.42
59825;BME280;45703;50.898;6.054;2023-04-04T13:05:33;101269.72;;;9.28;55.21
59825;BME280;45703;50.898;6.054;2023-04-04T13:08:07;101259.94;;;9.35;55.20
59825;BME280;45703;50.898;6.054;2023-04-04T13:13:34;101257.16;;;9.43;55.49
59825;BME280;45703;50.898;6.054;2023-04-04T13:16:01;101244.84;;;9.42;55.56
59825;BME280;45703;50.898;6.054;2023-04-04T13:18:33;101256.81;;;9.46;56.08